createdAt,value
2022-11-18T00:01:25.581Z,100648.56
2022-11-18T00:03:54.275Z,100660.25
2022-11-18T00:06:24.415Z,100627.38
2022-11-18T00:08:52.904Z,100655.59
2022-11-18T00:11:36.988Z,100655.59
2022-11-18T00:14:21.198Z,100651.25
2022-11-18T00:16:53.175Z,100653.94
2022-11-18T00:19:22.412Z,100647.56
2022-11-18T00:21:50.885Z,100660.13
2022-11-18T00:24:19.206Z,100656.59
2022-11-18T00:26:47.197Z,100663.66
2022-11-18T00:29:17.162Z,100660.97
2022-11-18T00:31:45.823Z,100660.97
2022-11-18T00:34:16.942Z,100666.34
2022-11-18T00:36:45.828Z,100666.34
2022-11-18T00:39:15.614Z,100659.28
2022-11-18T00:42:01.356Z,100647.41
2022-11-18T00:44:29.375Z,100650.25
2022-11-18T00:46:57.381Z,100666.34
2022-11-18T00:49:26.881Z,100665.50
2022-11-18T00:51:54.894Z,100669.16
2022-11-18T00:54:22.881Z,100660.97
2022-11-18T00:56:50.900Z,100661.25
2022-11-18T00:59:19.185Z,100666.34
2022-11-18T01:01:48.861Z,100665.63
2022-11-18T01:04:17.336Z,100674.53
2022-11-18T01:06:46.618Z,100668.31
2022-11-18T01:09:14.811Z,100662.94
2022-11-18T01:12:00.073Z,100687.09
2022-11-18T01:14:28.182Z,100675.53
2022-11-18T01:16:56.708Z,100557.16
2022-11-18T01:19:25.080Z,100682.72
2022-11-18T01:21:54.587Z,100681.72
2022-11-18T01:24:22.512Z,100677.66
2022-11-18T01:26:50.531Z,100668.59
2022-11-18T01:29:18.970Z,100689.09
2022-11-18T01:32:09.210Z,100683.59
2022-11-18T01:34:35.311Z,100693.47
2022-11-18T01:37:04.673Z,100684.41
2022-11-18T01:39:32.699Z,100689.78
2022-11-18T01:42:00.688Z,100684.41
2022-11-18T01:45:10.384Z,100686.13
2022-11-18T01:47:43.956Z,100681.72
2022-11-18T01:50:13.687Z,100677.50
2022-11-18T01:52:48.789Z,100681.06
2022-11-18T01:55:22.997Z,100688.09
2022-11-18T01:57:52.803Z,100677.38
2022-11-18T02:00:20.808Z,100688.09
2022-11-18T02:02:50.111Z,100684.41
2022-11-18T02:05:18.529Z,100691.50
2022-11-18T02:07:48.152Z,100683.59
2022-11-18T02:10:22.696Z,100678.75
2022-11-18T02:12:52.137Z,100687.81
2022-11-18T02:15:26.891Z,100687.81
2022-11-18T02:18:01.161Z,100693.19
2022-11-18T02:20:32.739Z,100693.19
2022-11-18T02:23:36.652Z,100691.50
2022-11-18T02:26:27.475Z,100692.59
2022-11-18T02:29:05.601Z,100688.09
2022-11-18T02:31:40.570Z,100691.50
2022-11-18T02:34:15.988Z,100687.81
2022-11-18T02:36:52.888Z,100687.09
2022-11-18T02:39:26.019Z,100686.13
2022-11-18T02:41:58.039Z,100691.50
2022-11-18T02:44:30.553Z,100701.22
2022-11-18T02:47:03.148Z,100695.88
2022-11-18T02:49:36.860Z,100701.22
2022-11-18T02:52:07.459Z,100703.91
2022-11-18T02:54:38.526Z,100699.56
2022-11-18T02:57:09.514Z,100657.88
2022-11-18T02:59:38.901Z,100702.22
2022-11-18T03:02:07.195Z,100702.22
2022-11-18T03:04:36.585Z,100703.91
2022-11-18T03:07:12.463Z,100699.41
2022-11-18T03:09:43.570Z,100705.59
2022-11-18T03:12:19.336Z,100703.91
2022-11-18T03:15:01.206Z,100701.66
2022-11-18T03:17:38.313Z,100708.44
2022-11-18T03:20:15.458Z,100719.16
2022-11-18T03:22:48.752Z,100726.50
2022-11-18T03:25:23.046Z,100736.94
2022-11-18T03:27:57.067Z,100740.63
2022-11-18T03:30:27.306Z,100735.28
2022-11-18T03:33:01.881Z,100730.19
2022-11-18T03:35:34.836Z,100724.81
2022-11-18T03:38:08.622Z,100711.25
2022-11-18T03:40:39.895Z,100734.41
2022-11-18T03:43:12.475Z,100745.16
2022-11-18T03:45:46.768Z,100698.25
2022-11-18T03:48:18.452Z,100738.94
2022-11-18T03:50:51.401Z,100738.94
2022-11-18T03:53:21.229Z,100742.59
2022-11-18T03:55:54.937Z,100739.09
2022-11-18T03:58:29.134Z,100740.91
2022-11-18T04:01:05.952Z,100747.97
2022-11-18T04:03:33.922Z,100758.72
2022-11-18T04:06:10.895Z,100762.38
2022-11-18T04:08:41.435Z,100758.72
2022-11-18T04:11:35.214Z,100758.72
2022-11-18T04:14:05.274Z,100762.38
2022-11-18T04:16:40.802Z,100768.63
2022-11-18T04:19:08.788Z,100767.75
2022-11-18T04:21:36.898Z,100773.13
2022-11-18T04:24:05.270Z,100774.28
2022-11-18T04:26:33.218Z,100789.22
2022-11-18T04:29:01.205Z,100788.22
2022-11-18T04:31:29.153Z,100794.59
2022-11-18T04:33:58.525Z,100799.97
2022-11-18T04:36:26.517Z,100794.59
2022-11-18T04:38:54.516Z,100794.59
2022-11-18T04:41:42.485Z,100789.22
2022-11-18T04:44:13.453Z,100794.59
2022-11-18T04:46:42.910Z,100799.25
2022-11-18T04:49:14.673Z,100803.38
2022-11-18T04:51:43.801Z,100806.75
2022-11-18T04:54:12.720Z,100798.00
2022-11-18T04:56:45.636Z,100804.19
2022-11-18T04:59:16.893Z,100804.19
2022-11-18T05:01:45.191Z,100804.19
2022-11-18T05:04:16.029Z,100816.66
2022-11-18T05:06:44.013Z,100819.47
2022-11-18T05:09:12.344Z,100827.38
2022-11-18T05:11:58.075Z,100838.94
2022-11-18T05:14:27.772Z,100845.19
2022-11-18T05:16:56.643Z,100841.50
2022-11-18T05:19:26.128Z,100849.69
2022-11-18T05:21:54.278Z,100847.13
2022-11-18T05:24:24.185Z,100849.97
2022-11-18T05:26:52.472Z,100856.19
2022-11-18T05:29:21.332Z,100854.38
2022-11-18T05:31:50.351Z,100855.34
2022-11-18T05:34:19.372Z,100862.41
2022-11-18T05:36:48.710Z,100866.06
2022-11-18T05:39:17.176Z,100873.84
2022-11-18T05:42:02.543Z,100873.97
2022-11-18T05:44:30.544Z,100874.13
2022-11-18T05:46:58.579Z,100868.06
2022-11-18T05:49:26.682Z,100876.66
2022-11-18T05:51:56.000Z,100883.91
2022-11-18T05:54:24.186Z,100878.53
2022-11-18T05:56:52.729Z,100889.25
2022-11-18T05:59:20.892Z,100874.53
2022-11-18T06:01:54.062Z,100881.06
2022-11-18T06:04:27.730Z,100878.53
2022-11-18T06:07:01.635Z,100889.81
2022-11-18T06:09:33.714Z,100891.78
2022-11-18T06:12:05.508Z,100885.69
2022-11-18T06:14:39.652Z,100886.41
2022-11-18T06:17:12.324Z,100902.78
2022-11-18T06:19:40.550Z,100899.09
2022-11-18T06:22:10.422Z,100900.81
2022-11-18T06:24:39.428Z,100903.50
2022-11-18T06:27:07.639Z,100895.72
2022-11-18T06:29:35.916Z,100905.34
2022-11-18T06:32:04.100Z,100912.53
2022-11-18T06:34:35.556Z,100916.94
2022-11-18T06:37:15.065Z,100923.25
2022-11-18T06:39:43.098Z,100843.88
2022-11-18T06:42:11.579Z,100893.66
2022-11-18T06:44:38.615Z,100920.84
2022-11-18T06:47:06.739Z,100934.72
2022-11-18T06:49:34.755Z,100936.69
2022-11-18T06:52:02.728Z,100940.38
2022-11-18T06:54:32.080Z,100935.00
2022-11-18T06:57:00.053Z,100942.03
2022-11-18T06:59:28.431Z,100940.38
2022-11-18T07:01:57.325Z,100943.78
2022-11-18T07:04:25.345Z,100942.03
2022-11-18T07:06:53.603Z,100949.13
2022-11-18T07:09:21.636Z,100949.13
2022-11-18T07:11:51.047Z,100956.47
2022-11-18T07:14:19.289Z,100956.47
2022-11-18T07:16:47.319Z,100971.72
2022-11-18T07:19:15.778Z,100969.16
2022-11-18T07:21:43.913Z,100962.09
2022-11-18T07:24:15.144Z,100973.69
2022-11-18T07:26:46.577Z,100967.47
2022-11-18T07:29:16.155Z,100969.44
2022-11-18T07:31:44.193Z,100975.53
2022-11-18T07:34:13.615Z,100980.88
2022-11-18T07:36:41.565Z,100974.78
2022-11-18T07:39:09.659Z,100987.81
2022-11-18T07:41:37.660Z,100996.00
2022-11-18T07:44:07.513Z,100988.94
2022-11-18T07:46:38.325Z,100996.00
2022-11-18T07:49:08.843Z,100994.31
2022-11-18T07:51:38.462Z,100994.31
2022-11-18T07:54:09.894Z,100996.00
2022-11-18T07:56:37.852Z,100998.94
2022-11-18T07:59:05.998Z,101003.34
2022-11-18T08:01:34.405Z,101005.03
2022-11-18T08:04:08.344Z,101007.84
2022-11-18T08:06:36.715Z,101014.09
2022-11-18T08:09:06.232Z,101016.78
2022-11-18T08:11:34.342Z,101019.44
2022-11-18T08:14:02.353Z,101015.03
2022-11-18T08:16:30.402Z,100973.28
2022-11-18T08:19:00.185Z,101023.97
2022-11-18T08:21:29.663Z,101024.81
2022-11-18T08:23:59.224Z,101026.63
2022-11-18T08:26:28.523Z,101030.19
2022-11-18T08:28:56.966Z,101024.09
2022-11-18T08:31:26.817Z,101028.47
2022-11-18T08:33:58.205Z,101028.47
2022-11-18T08:36:28.391Z,101028.47
2022-11-18T08:38:58.741Z,101022.28
2022-11-18T08:41:32.898Z,101032.16
2022-11-18T08:44:01.088Z,101028.56
2022-11-18T08:46:29.142Z,101032.16
2022-11-18T08:48:57.281Z,101038.38
2022-11-18T08:51:25.610Z,101027.75
2022-11-18T08:53:53.565Z,101029.47
2022-11-18T08:56:24.763Z,101034.84
2022-11-18T08:58:53.472Z,101039.31
2022-11-18T09:01:21.438Z,101036.63
2022-11-18T09:03:50.781Z,101031.25
2022-11-18T09:06:20.641Z,101029.47
2022-11-18T09:08:49.205Z,101034.06
2022-11-18T09:11:19.324Z,101035.06
2022-11-18T09:16:37.358Z,101034.06
2022-11-18T09:19:31.611Z,101037.50
2022-11-18T09:21:53.450Z,101044.66
2022-11-18T09:24:21.507Z,101054.47
2022-11-18T09:26:50.013Z,101047.34
2022-11-18T09:29:20.060Z,101042.88
2022-11-18T09:31:47.972Z,101051.78
2022-11-18T09:34:16.430Z,101052.63
2022-11-18T09:36:44.586Z,101052.63
2022-11-18T09:39:12.488Z,101062.41
2022-11-18T09:41:46.493Z,101056.16
2022-11-18T09:44:31.906Z,101060.66
2022-11-18T09:47:12.483Z,101066.03
2022-11-18T09:49:42.544Z,101074.81
2022-11-18T09:52:18.085Z,101080.19
2022-11-18T09:54:46.779Z,101077.00
2022-11-18T09:57:17.734Z,101080.44
2022-11-18T09:59:47.678Z,101038.53
2022-11-18T10:02:43.319Z,101076.78
2022-11-18T10:05:18.229Z,101082.13
2022-11-18T10:07:55.990Z,101068.25
2022-11-18T10:10:30.976Z,101072.19
2022-11-18T10:13:05.921Z,101082.81
2022-11-18T10:15:40.937Z,101087.31
2022-11-18T10:18:52.800Z,101085.63
2022-11-18T10:21:20.186Z,101089.72
2022-11-18T10:23:54.868Z,101081.75
2022-11-18T10:26:36.182Z,101098.47
2022-11-18T10:29:04.603Z,101089.00
2022-11-18T10:31:34.196Z,101091.69
2022-11-18T10:34:03.905Z,101099.88
2022-11-18T10:36:34.440Z,101095.09
2022-11-18T10:39:11.451Z,101086.56
2022-11-18T10:41:51.080Z,101093.09
2022-11-18T10:44:35.057Z,101092.28
2022-11-18T10:47:28.086Z,101100.19
2022-11-18T10:49:57.828Z,101064.47
2022-11-18T10:52:26.418Z,101103.00
2022-11-18T10:55:23.047Z,101109.22
2022-11-18T10:57:58.259Z,101072.94
2022-11-18T11:00:44.396Z,101106.53
2022-11-18T11:03:36.348Z,101110.94
2022-11-18T11:06:31.125Z,101114.56
2022-11-18T11:09:02.176Z,101111.88
2022-11-18T11:11:32.536Z,101110.94
2022-11-18T11:14:21.333Z,101114.56
2022-11-18T11:16:56.727Z,101075.47
2022-11-18T11:19:32.793Z,101121.66
2022-11-18T11:22:00.773Z,101119.94
2022-11-18T11:24:29.440Z,101114.56
2022-11-18T11:30:09.995Z,101119.94
2022-11-18T11:33:01.711Z,101112.03
2022-11-18T11:35:38.302Z,101114.56
2022-11-18T11:38:14.778Z,101114.56
2022-11-18T11:40:52.693Z,101109.22
2022-11-18T11:43:39.524Z,101126.16
2022-11-18T11:46:20.988Z,101118.03
2022-11-18T11:48:58.791Z,101114.56
2022-11-18T11:51:34.655Z,101109.22
2022-11-18T11:54:24.446Z,101110.94
2022-11-18T11:57:00.152Z,101107.78
2022-11-18T11:59:35.596Z,101110.59
2022-11-18T12:02:41.823Z,101113.41
2022-11-18T12:05:20.369Z,101104.66
2022-11-18T12:07:55.181Z,101114.28
2022-11-18T12:10:31.740Z,101112.59
2022-11-18T12:13:33.682Z,101126.13
2022-11-18T12:16:23.362Z,101124.41
2022-11-18T12:18:58.608Z,101127.81
2022-11-18T12:22:05.227Z,101126.97
2022-11-18T12:24:39.281Z,101133.19
2022-11-18T12:28:03.001Z,101134.03
2022-11-18T12:30:30.947Z,101122.44
2022-11-18T12:32:59.287Z,101122.44
2022-11-18T12:35:29.653Z,101127.81
2022-11-18T12:38:02.358Z,101122.31
2022-11-18T12:40:38.477Z,101121.47
2022-11-18T12:43:24.914Z,101113.94
2022-11-18T12:45:56.091Z,101109.75
2022-11-18T12:48:41.277Z,101114.13
2022-11-18T12:51:42.574Z,101106.09
2022-11-18T12:54:38.845Z,101101.72
2022-11-18T12:57:19.695Z,101100.00
2022-11-18T12:59:47.991Z,101097.31
2022-11-18T13:02:24.044Z,101097.56
2022-11-18T13:05:09.993Z,101102.69
2022-11-18T13:08:03.316Z,101101.00
2022-11-18T13:10:34.044Z,101104.41
2022-11-18T13:13:03.786Z,101108.03
2022-11-18T13:15:49.363Z,101104.53
2022-11-18T13:18:19.672Z,101116.09
2022-11-18T13:20:56.676Z,101110.03
2022-11-18T13:23:47.076Z,101114.94
2022-11-18T13:26:20.597Z,101123.19
2022-11-18T13:29:15.620Z,101140.25
2022-11-18T13:31:53.043Z,101134.88
2022-11-18T13:34:25.626Z,101140.25
2022-11-18T13:36:55.347Z,101138.56
2022-11-18T13:39:25.335Z,101138.56
2022-11-18T13:42:01.350Z,101150.97
2022-11-18T13:44:32.515Z,101144.78
2022-11-18T13:47:07.849Z,101145.59
2022-11-18T13:49:50.353Z,101152.69
2022-11-18T13:52:21.694Z,101158.31
2022-11-18T13:54:52.184Z,101155.38
2022-11-18T13:57:23.339Z,101158.06
2022-11-18T13:59:55.118Z,101153.78
2022-11-18T14:02:23.610Z,101167.81
2022-11-18T14:04:55.547Z,101160.03
2022-11-18T14:07:30.213Z,101165.13
2022-11-18T14:10:01.011Z,101167.81
2022-11-18T14:12:32.324Z,101165.97
2022-11-18T14:15:34.144Z,101170.50
2022-11-18T14:18:03.818Z,101165.38
2022-11-18T14:20:32.357Z,101131.22
2022-11-18T14:23:02.230Z,101170.50
2022-11-18T14:25:33.342Z,101170.50
2022-11-18T14:28:14.520Z,101170.50
2022-11-18T14:30:56.105Z,101175.00
2022-11-18T14:33:25.152Z,101180.22
2022-11-18T14:35:56.569Z,101179.53
2022-11-18T14:38:38.838Z,101179.53
2022-11-18T14:41:41.005Z,101186.59
2022-11-18T14:44:13.484Z,101184.91
2022-11-18T14:46:45.370Z,101183.19
2022-11-18T14:49:16.863Z,101189.28
2022-11-18T14:51:45.850Z,101188.53
2022-11-18T14:54:17.193Z,101197.44
2022-11-18T14:56:50.112Z,101194.63
2022-11-18T14:59:20.185Z,101197.19
2022-11-18T15:01:49.696Z,101206.94
2022-11-18T15:04:18.331Z,101212.31
2022-11-18T15:06:46.500Z,101207.06
2022-11-18T15:09:14.403Z,101206.06
2022-11-18T15:11:42.404Z,101211.44
2022-11-18T15:14:10.448Z,101207.94
2022-11-18T15:16:38.375Z,101202.69
2022-11-18T15:19:12.245Z,101216.81
2022-11-18T15:21:40.176Z,101208.75
2022-11-18T15:24:08.287Z,101196.34
2022-11-18T15:26:39.441Z,101206.25
2022-11-18T15:29:16.455Z,101196.34
2022-11-18T15:31:44.363Z,101204.38
2022-11-18T15:34:13.648Z,101216.81
2022-11-18T15:36:41.613Z,101216.81
2022-11-18T15:39:12.288Z,101222.19
2022-11-18T15:41:42.073Z,101223.91
2022-11-18T15:44:11.936Z,101223.91
2022-11-18T15:46:39.951Z,101229.25
2022-11-18T15:49:09.767Z,101227.53
2022-11-18T15:51:40.308Z,101234.63
2022-11-18T15:54:08.228Z,101232.91
2022-11-18T15:56:36.680Z,101227.53
2022-11-18T15:59:06.545Z,101235.59
2022-11-18T16:01:36.231Z,101240.97
2022-11-18T16:04:05.520Z,101232.91
2022-11-18T16:06:33.780Z,101239.13
2022-11-18T16:09:03.800Z,101234.63
2022-11-18T16:11:49.463Z,101238.28
2022-11-18T16:14:19.426Z,101243.63
2022-11-18T16:16:49.390Z,101231.22
2022-11-18T16:19:19.128Z,101229.53
2022-11-18T16:21:49.294Z,101230.66
2022-11-18T16:24:21.499Z,101236.72
2022-11-18T16:26:50.455Z,101233.19
2022-11-18T16:29:19.118Z,101236.59
2022-11-18T16:31:50.890Z,101244.75
2022-11-18T16:34:21.022Z,101241.13
2022-11-18T16:36:52.167Z,101252.69
2022-11-18T16:39:25.151Z,101251.00
2022-11-18T16:41:54.908Z,101243.94
2022-11-18T16:44:23.339Z,101251.84
2022-11-18T16:46:52.717Z,101244.63
2022-11-18T16:49:22.987Z,101248.19
2022-11-18T16:51:52.890Z,101253.53
2022-11-18T16:54:24.285Z,101258.06
2022-11-18T16:56:53.342Z,101249.28
2022-11-18T16:59:22.899Z,101247.31
2022-11-18T17:01:51.813Z,101259.75
2022-11-18T17:04:20.617Z,101250.13
2022-11-18T17:06:49.345Z,101234.81
2022-11-18T17:09:19.758Z,101265.09
2022-11-18T17:11:50.385Z,101263.41
2022-11-18T17:14:19.626Z,101264.41
2022-11-18T17:16:47.935Z,101267.09
2022-11-18T17:19:17.430Z,101262.25
2022-11-18T17:21:46.107Z,101267.09
2022-11-18T17:24:15.716Z,101224.25
2022-11-18T17:26:44.014Z,101268.78
2022-11-18T17:29:14.292Z,101265.28
2022-11-18T17:31:43.160Z,101233.28
2022-11-18T17:34:13.010Z,101279.66
2022-11-18T17:36:41.960Z,101266.34
2022-11-18T17:39:11.734Z,101284.88
2022-11-18T17:41:58.630Z,101279.50
2022-11-18T17:44:29.231Z,101290.25
2022-11-18T17:46:57.277Z,101291.94
2022-11-18T17:49:25.311Z,101287.94
2022-11-18T17:51:53.238Z,101299.03
2022-11-18T17:54:21.772Z,101294.50
2022-11-18T17:56:52.252Z,101297.31
2022-11-18T17:59:20.500Z,101279.06
2022-11-18T18:01:54.135Z,101297.06
2022-11-18T18:04:25.463Z,101300.50
2022-11-18T18:06:53.592Z,101299.50
2022-11-18T18:09:28.484Z,101300.25
2022-11-18T18:11:58.299Z,101301.94
2022-11-18T18:14:25.274Z,101215.06
2022-11-18T18:16:55.244Z,101305.50
2022-11-18T18:19:24.636Z,101312.69
2022-11-18T18:21:53.321Z,101314.16
2022-11-18T18:24:22.130Z,101315.84
2022-11-18T18:26:50.870Z,101315.84
2022-11-18T18:29:19.257Z,101314.16
2022-11-18T18:31:47.731Z,101318.66
2022-11-18T18:34:17.870Z,101321.47
2022-11-18T18:36:46.212Z,101326.84
2022-11-18T18:39:14.568Z,101318.06
2022-11-18T18:41:44.120Z,101295.88
2022-11-18T18:44:18.083Z,101326.22
2022-11-18T18:46:45.655Z,101325.41
2022-11-18T18:49:15.499Z,101324.53
2022-11-18T18:51:48.953Z,101329.03
2022-11-18T18:54:18.868Z,101332.72
2022-11-18T18:56:47.305Z,101337.19
2022-11-18T18:59:15.346Z,101334.41
2022-11-18T19:01:43.376Z,101341.72
2022-11-18T19:04:13.762Z,101341.72
2022-11-18T19:06:56.889Z,101340.25
2022-11-18T19:09:28.802Z,101348.91
2022-11-18T19:12:14.636Z,101350.72
2022-11-18T19:14:42.960Z,101355.13
2022-11-18T19:17:12.597Z,101345.63
2022-11-18T19:19:59.778Z,101348.16
2022-11-18T19:22:31.835Z,101352.72
2022-11-18T19:25:02.157Z,101356.22
2022-11-18T19:27:30.728Z,101350.97
2022-11-18T19:29:58.766Z,101350.97
2022-11-18T19:32:27.172Z,101352.22
2022-11-18T19:34:55.502Z,101361.72
2022-11-18T19:37:23.489Z,101355.53
2022-11-18T19:39:51.434Z,101356.63
2022-11-18T19:42:21.201Z,101354.66
2022-11-18T19:44:49.517Z,101361.72
2022-11-18T19:47:18.052Z,101369.78
2022-11-18T19:49:46.178Z,101362.56
2022-11-18T19:52:14.278Z,101361.72
2022-11-18T19:54:42.512Z,101356.34
2022-11-18T19:57:10.452Z,101355.53
2022-11-18T19:59:39.843Z,101367.09
2022-11-18T20:02:08.928Z,101365.25
2022-11-18T20:04:36.877Z,101362.69
2022-11-18T20:07:05.300Z,101360.03
2022-11-18T20:09:33.329Z,101360.03
2022-11-18T20:12:01.503Z,101377.81
2022-11-18T20:14:29.818Z,101375.13
2022-11-18T20:16:59.919Z,101378.69
2022-11-18T20:19:27.917Z,101381.38
2022-11-18T20:21:55.830Z,101377.00
2022-11-18T20:24:23.911Z,101381.50
2022-11-18T20:26:51.852Z,101377.81
2022-11-18T20:29:20.970Z,101377.25
2022-11-18T20:31:49.728Z,101378.81
2022-11-18T20:34:19.296Z,101383.19
2022-11-18T20:36:49.856Z,101386.84
2022-11-18T20:39:18.453Z,101392.22
2022-11-18T20:42:11.553Z,101378.94
2022-11-18T20:44:40.611Z,101380.03
2022-11-18T20:47:08.626Z,101389.09
2022-11-18T20:49:38.822Z,101386.97
2022-11-18T20:52:07.162Z,101401.25
2022-11-18T20:54:38.254Z,101398.59
2022-11-18T20:57:06.178Z,101387.34
2022-11-18T20:59:34.095Z,101397.84
2022-11-18T21:02:02.256Z,101407.34
2022-11-18T21:04:30.223Z,101407.50
2022-11-18T21:07:01.878Z,101400.28
2022-11-18T21:09:32.909Z,101404.06
2022-11-18T21:12:01.041Z,101404.66
2022-11-18T21:14:29.323Z,101407.34
2022-11-18T21:17:02.659Z,101406.63
2022-11-18T21:19:32.863Z,101411.75
2022-11-18T21:22:01.623Z,101402.97
2022-11-18T21:24:30.726Z,101369.13
2022-11-18T21:27:00.300Z,101410.03
2022-11-18T21:29:30.424Z,101413.13
2022-11-18T21:32:00.596Z,101389.84
2022-11-18T21:34:28.588Z,101422.47
2022-11-18T21:36:56.561Z,101416.50
2022-11-18T21:39:27.304Z,101423.44
2022-11-18T21:41:57.080Z,101420.28
2022-11-18T21:44:28.067Z,101430.78
2022-11-18T21:46:56.336Z,101422.97
2022-11-18T21:49:24.316Z,101434.59
2022-11-18T21:51:54.860Z,101430.66
2022-11-18T21:54:22.776Z,101426.41
2022-11-18T21:56:53.751Z,101403.25
2022-11-18T21:59:22.478Z,101423.59
2022-11-18T22:01:50.546Z,101419.31
2022-11-18T22:04:32.613Z,101419.31
2022-11-18T22:07:00.636Z,101433.47
2022-11-18T22:09:34.539Z,101429.78
2022-11-18T22:12:06.825Z,101430.78
2022-11-18T22:14:35.153Z,101426.41
2022-11-18T22:17:03.345Z,101429.78
2022-11-18T22:19:31.595Z,101424.44
2022-11-18T22:21:59.615Z,101404.44
2022-11-18T22:24:27.976Z,101421.28
2022-11-18T22:26:55.918Z,101412.75
2022-11-18T22:29:26.182Z,101367.56
2022-11-18T22:31:54.415Z,101405.94
2022-11-18T22:34:22.400Z,101420.66
2022-11-18T22:36:50.341Z,101412.75
2022-11-18T22:39:18.621Z,101409.31
2022-11-18T22:42:04.395Z,101403.94
2022-11-18T22:44:33.751Z,101414.44
2022-11-18T22:47:01.890Z,101423.47
2022-11-18T22:49:29.917Z,101417.38
2022-11-18T22:51:57.899Z,101413.25
2022-11-18T22:54:41.198Z,101402.13
2022-11-18T22:57:09.452Z,101410.69
2022-11-18T22:59:38.839Z,101425.16
2022-11-18T23:02:07.163Z,101419.81
2022-11-18T23:04:35.258Z,101411.53
2022-11-18T23:07:03.402Z,101422.63
2022-11-18T23:09:31.689Z,101418.13
2022-11-18T23:12:17.044Z,101414.56
2022-11-18T23:14:46.700Z,101429.09
2022-11-18T23:17:16.037Z,101428.84
2022-11-18T23:19:44.183Z,101427.16
2022-11-18T23:22:12.622Z,101422.72
2022-11-18T23:24:40.899Z,101422.28
2022-11-18T23:27:09.600Z,101429.09
2022-11-18T23:29:40.046Z,101417.50
2022-11-18T23:32:09.449Z,101420.91
2022-11-18T23:34:37.891Z,101415.06
2022-11-18T23:37:05.859Z,101406.88
2022-11-18T23:39:34.726Z,101414.69
2022-11-18T23:42:06.243Z,101411.88
2022-11-18T23:44:46.660Z,101409.44
2022-11-18T23:47:16.265Z,101407.88
2022-11-18T23:49:44.236Z,101407.63
2022-11-18T23:52:12.824Z,101414.69
2022-11-18T23:54:40.870Z,101407.38
2022-11-18T23:57:09.753Z,101405.69
2022-11-18T23:59:38.719Z,101406.50
